KTUP/TUP METAR and TAF weather

Enter ICAO airport designator
Station Type Date Time Source
KTUP METAR 2022/09/28 17:53 UTC NOAA

KTUP 281753Z 03015G22KT 10SM CLR 24/03 A3029 RMK AO2 PK WND 36027/1726 SLP253 T02390033 10239 20094 58010


Station Type Date Time Source
KTUP Decoded METAR 2022/09/28 17:53 UTC NOAA

TUPELO REGIONAL AIRPORT, MS, United States (KTUP) 34-16N 88-46W 105M
Sep 28, 2022 - 01:53 PM EDT / 2022.09.28 1753 UTC
Wind: from the NNE (030 degrees) at 17 MPH (15 KT) gusting to 25 MPH (22 KT):0
Visibility: 10 mile(s):0
Sky conditions: clear
Temperature: 75.0 F (23.9 C)
Dew Point: 37.9 F (3.3 C)
Relative Humidity: 26%
Pressure (altimeter): 30.29 in. Hg (1025 hPa)
Pressure tendency: 0.03 inches (1.0 hPa) lower than three hours ago
ob: KTUP 281753Z 03015G22KT 10SM CLR 24/03 A3029 RMK AO2 PK WND 36027/1726 SLP253 T02390033 10239 20094 58010
cycle: 18

Station Type Date Time Source
KTUP TAF 2022/09/28 18:22 UTC NOAA

TAF KTUP 281720Z 2818/2918 03015G22KT P6SM SKC
FM290000 03012KT P6SM SKC
FM290600 04008KT P6SM SKC
FM291500 06012G18KT P6SM SKC

Example: see airport list